createdAt,value
2018-05-07T00:01:29.409Z,15.75
2018-05-07T00:02:29.964Z,15.79
2018-05-07T00:03:30.530Z,15.84
2018-05-07T00:04:31.066Z,15.82
2018-05-07T00:05:31.615Z,15.68
2018-05-07T00:06:32.165Z,15.65
2018-05-07T00:07:32.727Z,15.69
2018-05-07T00:08:33.252Z,15.64
2018-05-07T00:09:33.894Z,15.61
2018-05-07T00:10:34.432Z,15.58
2018-05-07T00:11:34.978Z,15.49
2018-05-07T00:12:35.439Z,15.49
2018-05-07T00:13:35.982Z,15.51
2018-05-07T00:14:36.532Z,15.36
2018-05-07T00:15:37.080Z,15.34
2018-05-07T00:16:37.626Z,15.39
2018-05-07T00:17:38.180Z,15.28
2018-05-07T00:18:38.726Z,15.31
2018-05-07T00:19:39.278Z,15.25
2018-05-07T00:20:39.887Z,15.26
2018-05-07T00:21:40.378Z,15.24
2018-05-07T00:22:40.928Z,15.17
2018-05-07T00:23:41.481Z,15.18
2018-05-07T00:24:42.023Z,15.25
2018-05-07T00:25:42.568Z,15.25
2018-05-07T00:26:43.115Z,15.18
2018-05-07T00:27:43.686Z,15.14
2018-05-07T00:28:44.215Z,15.14
2018-05-07T00:29:44.761Z,15.04
2018-05-07T00:30:45.314Z,14.99
2018-05-07T00:31:45.852Z,14.99
2018-05-07T00:32:46.401Z,15.00
2018-05-07T00:33:46.948Z,14.94
2018-05-07T00:34:47.497Z,14.92
2018-05-07T00:35:48.048Z,14.89
2018-05-07T00:36:48.595Z,14.95
2018-05-07T00:37:49.145Z,14.89
2018-05-07T00:38:49.697Z,14.92
2018-05-07T00:39:50.243Z,14.96
2018-05-07T00:40:50.788Z,14.88
2018-05-07T00:41:51.338Z,14.88
2018-05-07T00:42:51.888Z,14.88
2018-05-07T00:43:52.435Z,14.85
2018-05-07T00:44:52.977Z,14.82
2018-05-07T00:45:53.528Z,14.82
2018-05-07T00:46:54.073Z,14.81
2018-05-07T00:47:54.623Z,14.73
2018-05-07T00:48:55.170Z,14.75
2018-05-07T00:49:55.714Z,14.73
2018-05-07T00:50:56.257Z,14.70
2018-05-07T00:51:56.803Z,14.69
2018-05-07T00:52:57.356Z,14.62
2018-05-07T00:53:57.902Z,14.60
2018-05-07T00:54:58.446Z,14.55
2018-05-07T00:55:58.994Z,14.51
2018-05-07T00:56:59.542Z,14.57
2018-05-07T00:58:00.093Z,14.57
2018-05-07T00:59:00.641Z,14.50
2018-05-07T01:00:01.191Z,14.48
2018-05-07T01:01:01.740Z,14.44
2018-05-07T01:02:02.292Z,14.48
2018-05-07T01:03:02.840Z,14.44
2018-05-07T01:04:03.390Z,14.45
2018-05-07T01:05:03.936Z,14.43
2018-05-07T01:06:04.487Z,14.35
2018-05-07T01:07:05.034Z,14.35
2018-05-07T01:08:05.580Z,14.33
2018-05-07T01:09:06.128Z,14.30
2018-05-07T01:10:06.679Z,14.36
2018-05-07T01:11:07.230Z,14.36
2018-05-07T01:12:07.783Z,14.33
2018-05-07T01:13:08.334Z,14.32
2018-05-07T01:14:08.889Z,14.27
2018-05-07T01:15:09.437Z,14.19
2018-05-07T01:16:09.980Z,14.15
2018-05-07T01:17:10.530Z,14.14
2018-05-07T01:18:11.077Z,14.14
2018-05-07T01:19:11.625Z,14.11
2018-05-07T01:20:12.175Z,14.17
2018-05-07T01:21:12.724Z,14.17
2018-05-07T01:22:13.273Z,14.10
2018-05-07T01:23:13.865Z,14.15
2018-05-07T01:24:14.412Z,14.17
2018-05-07T01:25:14.958Z,14.12
2018-05-07T01:26:15.505Z,14.05
2018-05-07T01:27:16.047Z,13.99
2018-05-07T01:28:16.600Z,13.96
2018-05-07T01:29:17.146Z,14.02
2018-05-07T01:30:17.692Z,14.00
2018-05-07T01:31:18.242Z,13.99
2018-05-07T01:32:18.794Z,13.87
2018-05-07T01:33:19.336Z,13.78
2018-05-07T01:34:19.885Z,13.74
2018-05-07T01:35:20.430Z,13.77
2018-05-07T01:36:20.979Z,13.71
2018-05-07T01:37:21.530Z,13.69
2018-05-07T01:38:22.073Z,13.63
2018-05-07T01:39:22.617Z,13.60
2018-05-07T01:40:23.166Z,13.56
2018-05-07T01:41:23.714Z,13.56
2018-05-07T01:42:24.259Z,13.52
2018-05-07T01:43:24.808Z,13.44
2018-05-07T01:44:25.349Z,13.35
2018-05-07T01:45:25.894Z,13.31
2018-05-07T01:46:26.453Z,13.22
2018-05-07T01:47:26.983Z,13.20
2018-05-07T01:48:27.536Z,13.20
2018-05-07T01:49:28.086Z,13.16
2018-05-07T01:50:28.629Z,13.19
2018-05-07T01:51:29.174Z,13.18
2018-05-07T01:52:29.722Z,13.20
2018-05-07T01:53:30.274Z,13.15
2018-05-07T01:54:30.811Z,13.15
2018-05-07T01:55:31.355Z,13.16
2018-05-07T01:56:31.904Z,13.15
2018-05-07T01:57:32.450Z,13.16
2018-05-07T01:58:32.997Z,13.18
2018-05-07T01:59:33.544Z,13.19
2018-05-07T02:00:34.088Z,13.19
2018-05-07T02:01:34.636Z,13.18
2018-05-07T02:02:35.187Z,13.12
2018-05-07T02:03:35.735Z,13.10
2018-05-07T02:04:36.279Z,13.07
2018-05-07T02:05:36.825Z,13.12
2018-05-07T02:06:37.370Z,13.23
2018-05-07T02:07:37.922Z,13.23
2018-05-07T02:08:38.472Z,13.22
2018-05-07T02:09:39.022Z,13.20
2018-05-07T02:10:39.563Z,13.23
2018-05-07T02:11:40.112Z,13.13
2018-05-07T02:12:40.660Z,13.19
2018-05-07T02:13:41.212Z,13.18
2018-05-07T02:14:41.755Z,13.12
2018-05-07T02:15:42.301Z,13.08
2018-05-07T02:16:42.853Z,13.16
2018-05-07T02:17:43.408Z,13.15
2018-05-07T02:18:43.949Z,13.13
2018-05-07T02:19:44.499Z,13.13
2018-05-07T02:20:45.050Z,13.10
2018-05-07T02:21:45.595Z,13.15
2018-05-07T02:22:46.144Z,13.13
2018-05-07T02:23:46.688Z,12.98
2018-05-07T02:24:47.237Z,13.13
2018-05-07T02:25:47.783Z,13.01
2018-05-07T02:26:48.332Z,13.08
2018-05-07T02:27:48.887Z,13.04
2018-05-07T02:28:49.433Z,13.04
2018-05-07T02:29:49.987Z,13.04
2018-05-07T02:30:50.534Z,13.02
2018-05-07T02:31:51.081Z,13.10
2018-05-07T02:32:51.625Z,12.98
2018-05-07T02:33:52.176Z,12.95
2018-05-07T02:34:52.723Z,13.01
2018-05-07T02:35:53.268Z,12.98
2018-05-07T02:36:53.817Z,12.90
2018-05-07T02:37:54.365Z,12.83
2018-05-07T02:38:54.939Z,12.86
2018-05-07T02:39:55.464Z,12.89
2018-05-07T02:40:56.014Z,12.80
2018-05-07T02:41:56.562Z,12.72
2018-05-07T02:42:57.118Z,12.75
2018-05-07T02:43:57.660Z,12.71
2018-05-07T02:44:58.213Z,12.65
2018-05-07T02:45:58.754Z,12.62
2018-05-07T02:46:59.300Z,12.61
2018-05-07T02:47:59.849Z,12.61
2018-05-07T02:49:00.396Z,12.62
2018-05-07T02:50:00.942Z,12.67
2018-05-07T02:51:01.490Z,12.69
2018-05-07T02:52:02.039Z,12.71
2018-05-07T02:53:02.577Z,12.69
2018-05-07T02:54:03.124Z,12.68
2018-05-07T02:55:03.674Z,12.68
2018-05-07T02:56:04.220Z,12.80
2018-05-07T02:57:04.768Z,12.85
2018-05-07T02:58:05.317Z,12.77
2018-05-07T02:59:05.866Z,12.79
2018-05-07T03:00:06.414Z,12.80
2018-05-07T03:01:06.960Z,12.83
2018-05-07T03:02:07.512Z,12.83
2018-05-07T03:03:08.060Z,12.76
2018-05-07T03:04:08.611Z,12.77
2018-05-07T03:05:09.168Z,12.75
2018-05-07T03:06:09.700Z,12.79
2018-05-07T03:07:10.247Z,12.75
2018-05-07T03:08:10.795Z,12.67
2018-05-07T03:09:11.339Z,12.76
2018-05-07T03:10:11.881Z,12.71
2018-05-07T03:11:12.425Z,12.57
2018-05-07T03:12:13.034Z,12.57
2018-05-07T03:13:13.515Z,12.62
2018-05-07T03:14:14.064Z,12.60
2018-05-07T03:15:14.611Z,12.58
2018-05-07T03:16:15.158Z,12.49
2018-05-07T03:17:15.702Z,12.50
2018-05-07T03:18:16.249Z,12.50
2018-05-07T03:19:16.799Z,12.47
2018-05-07T03:20:17.347Z,12.50
2018-05-07T03:21:17.896Z,12.44
2018-05-07T03:22:18.443Z,12.43
2018-05-07T03:23:18.992Z,12.46
2018-05-07T03:24:19.539Z,12.37
2018-05-07T03:25:20.092Z,12.39
2018-05-07T03:26:20.636Z,12.42
2018-05-07T03:27:21.177Z,12.31
2018-05-07T03:28:21.723Z,12.27
2018-05-07T03:29:22.272Z,12.31
2018-05-07T03:30:22.818Z,12.25
2018-05-07T03:31:23.372Z,12.16
2018-05-07T03:32:23.914Z,12.19
2018-05-07T03:33:24.457Z,12.11
2018-05-07T03:34:25.008Z,12.06
2018-05-07T03:35:25.553Z,12.04
2018-05-07T03:36:26.101Z,12.03
2018-05-07T03:37:26.650Z,12.00
2018-05-07T03:38:27.197Z,12.03
2018-05-07T03:39:27.749Z,11.91
2018-05-07T03:40:28.309Z,11.90
2018-05-07T03:41:28.845Z,11.93
2018-05-07T03:42:29.395Z,11.84
2018-05-07T03:43:29.943Z,11.85
2018-05-07T03:44:30.495Z,11.73
2018-05-07T03:45:31.047Z,11.83
2018-05-07T03:46:31.600Z,11.72
2018-05-07T03:47:32.141Z,11.70
2018-05-07T03:48:32.700Z,11.69
2018-05-07T03:49:33.238Z,11.63
2018-05-07T03:50:33.786Z,11.58
2018-05-07T03:51:34.343Z,11.52
2018-05-07T03:52:34.886Z,11.52
2018-05-07T03:53:35.438Z,11.52
2018-05-07T03:54:35.990Z,11.40
2018-05-07T03:55:36.537Z,11.48
2018-05-07T03:56:37.089Z,11.45
2018-05-07T03:57:37.635Z,11.42
2018-05-07T03:58:38.189Z,11.42
2018-05-07T03:59:38.799Z,11.40
2018-05-07T04:00:39.287Z,11.51
2018-05-07T04:01:39.835Z,11.47
2018-05-07T04:02:40.381Z,11.48
2018-05-07T04:03:40.934Z,11.50
2018-05-07T04:04:41.487Z,11.51
2018-05-07T04:05:42.033Z,11.50
2018-05-07T04:06:42.586Z,11.48
2018-05-07T04:07:43.138Z,11.44
2018-05-07T04:08:43.691Z,11.34
2018-05-07T04:09:44.314Z,11.30
2018-05-07T04:10:44.785Z,11.37
2018-05-07T04:11:45.343Z,11.30
2018-05-07T04:12:45.885Z,11.36
2018-05-07T04:13:46.436Z,11.29
2018-05-07T04:14:46.986Z,11.30
2018-05-07T04:15:47.540Z,11.37
2018-05-07T04:16:48.091Z,11.39
2018-05-07T04:17:48.641Z,11.44
2018-05-07T04:18:49.195Z,11.40
2018-05-07T04:19:49.743Z,11.44
2018-05-07T04:20:50.290Z,11.45
2018-05-07T04:21:50.845Z,11.48
2018-05-07T04:22:51.399Z,11.50
2018-05-07T04:23:51.948Z,11.40
2018-05-07T04:24:52.502Z,11.47
2018-05-07T04:25:53.052Z,11.48
2018-05-07T04:26:53.602Z,11.52
2018-05-07T04:27:54.153Z,11.51
2018-05-07T04:28:54.708Z,11.50
2018-05-07T04:29:55.258Z,11.62
2018-05-07T04:30:55.809Z,11.65
2018-05-07T04:31:56.366Z,11.70
2018-05-07T04:32:56.910Z,11.59
2018-05-07T04:33:57.462Z,11.69
2018-05-07T04:34:58.016Z,11.66
2018-05-07T04:35:58.567Z,11.76
2018-05-07T04:36:59.120Z,11.76
2018-05-07T04:37:59.672Z,11.83
2018-05-07T04:39:00.225Z,11.85
2018-05-07T04:40:00.774Z,11.83
2018-05-07T04:41:01.329Z,11.88
2018-05-07T04:42:01.880Z,11.87
2018-05-07T04:43:02.429Z,12.00
2018-05-07T04:44:02.985Z,12.29
2018-05-07T04:45:03.542Z,12.62
2018-05-07T04:46:04.096Z,13.12
2018-05-07T04:47:04.652Z,13.78
2018-05-07T04:48:05.209Z,14.17
2018-05-07T04:49:05.759Z,14.47
2018-05-07T04:50:06.315Z,14.78
2018-05-07T04:51:06.865Z,14.75
2018-05-07T04:52:07.423Z,14.69
2018-05-07T04:53:07.981Z,14.73
2018-05-07T04:54:08.534Z,14.66
2018-05-07T04:55:09.156Z,14.60
2018-05-07T04:56:09.639Z,14.82
2018-05-07T04:57:10.196Z,15.11
2018-05-07T04:58:10.754Z,15.18
2018-05-07T04:59:11.306Z,15.47
2018-05-07T05:00:11.862Z,15.40
2018-05-07T05:01:12.417Z,15.68
2018-05-07T05:02:12.972Z,16.01
2018-05-07T05:03:13.528Z,16.56
2018-05-07T05:04:14.082Z,16.94
2018-05-07T05:05:14.640Z,17.24
2018-05-07T05:06:15.232Z,17.74
2018-05-07T05:07:15.825Z,18.18
2018-05-07T05:08:16.321Z,18.47
2018-05-07T05:09:16.884Z,18.48
2018-05-07T05:10:17.445Z,18.53
2018-05-07T05:11:18.008Z,18.55
2018-05-07T05:12:18.566Z,18.53
2018-05-07T05:13:19.132Z,18.47
2018-05-07T05:14:19.696Z,18.43
2018-05-07T05:15:20.256Z,18.59
2018-05-07T05:16:20.819Z,18.98
2018-05-07T05:17:21.378Z,19.34
2018-05-07T05:18:21.940Z,19.36
2018-05-07T05:19:22.500Z,19.09
2018-05-07T05:20:23.067Z,18.58
2018-05-07T05:21:23.642Z,18.20
2018-05-07T05:22:24.196Z,17.86
2018-05-07T05:23:24.755Z,17.45
2018-05-07T05:24:25.317Z,17.33
2018-05-07T05:25:25.878Z,17.49
2018-05-07T05:26:26.432Z,17.97
2018-05-07T05:27:27.016Z,18.50
2018-05-07T05:28:27.550Z,18.71
2018-05-07T05:29:28.114Z,18.89
2018-05-07T05:30:28.684Z,18.99
2018-05-07T05:31:29.244Z,19.06
2018-05-07T05:32:29.809Z,19.15
2018-05-07T05:33:30.369Z,19.21
2018-05-07T05:34:30.934Z,19.29
2018-05-07T05:35:31.498Z,19.56
2018-05-07T05:36:32.057Z,19.58
2018-05-07T05:37:32.625Z,19.70
2018-05-07T05:38:33.191Z,19.37
2018-05-07T05:39:33.752Z,19.19
2018-05-07T05:40:34.312Z,19.00
2018-05-07T05:41:34.877Z,19.29
2018-05-07T05:42:35.447Z,19.70
2018-05-07T05:43:36.042Z,20.13
2018-05-07T05:44:36.575Z,20.36
2018-05-07T05:45:37.140Z,20.69
2018-05-07T05:46:37.708Z,20.81
2018-05-07T05:47:38.274Z,20.98
2018-05-07T05:48:38.891Z,21.10
2018-05-07T05:49:39.463Z,21.47
2018-05-07T05:50:40.026Z,21.37
2018-05-07T05:51:40.594Z,20.82
2018-05-07T05:52:41.162Z,20.34
2018-05-07T05:53:41.725Z,20.21
2018-05-07T05:54:42.287Z,20.60
2018-05-07T05:55:42.855Z,20.87
2018-05-07T05:56:43.421Z,21.27
2018-05-07T05:57:43.992Z,21.72
2018-05-07T05:58:44.553Z,21.69
2018-05-07T05:59:45.118Z,21.86
2018-05-07T06:00:45.687Z,22.02
2018-05-07T06:01:46.259Z,22.16
2018-05-07T06:02:46.830Z,22.46
2018-05-07T06:03:47.469Z,22.78
2018-05-07T06:04:47.962Z,22.85
2018-05-07T06:05:48.535Z,22.72
2018-05-07T06:06:49.104Z,22.33
2018-05-07T06:07:49.679Z,22.40
2018-05-07T06:08:50.245Z,22.46
2018-05-07T06:09:50.873Z,22.44
2018-05-07T06:10:51.449Z,22.73
2018-05-07T06:11:52.020Z,22.90
2018-05-07T06:12:52.588Z,22.81
2018-05-07T06:13:53.156Z,22.85
2018-05-07T06:14:53.940Z,22.75
2018-05-07T06:15:54.292Z,22.76
2018-05-07T06:16:54.861Z,22.65
2018-05-07T06:17:55.429Z,22.81
2018-05-07T06:18:56.002Z,22.99
2018-05-07T06:19:56.573Z,23.06
2018-05-07T06:20:57.144Z,23.09
2018-05-07T06:21:57.718Z,23.03
2018-05-07T06:22:58.281Z,22.97
2018-05-07T06:23:58.847Z,23.41
2018-05-07T06:24:59.420Z,23.24
2018-05-07T06:25:59.990Z,23.27
2018-05-07T06:27:00.565Z,23.46
2018-05-07T06:28:01.135Z,23.51
2018-05-07T06:29:01.706Z,23.54
2018-05-07T06:30:02.271Z,23.65
2018-05-07T06:31:02.841Z,23.94
2018-05-07T06:32:03.416Z,24.17
2018-05-07T06:33:03.987Z,24.09
2018-05-07T06:34:04.558Z,23.79
2018-05-07T06:35:05.131Z,23.77
2018-05-07T06:36:05.713Z,23.90
2018-05-07T06:37:06.283Z,24.13
2018-05-07T06:38:06.854Z,24.21
2018-05-07T06:39:07.426Z,24.36
2018-05-07T06:40:07.994Z,24.33
2018-05-07T06:41:08.569Z,24.31
2018-05-07T06:42:09.144Z,24.14
2018-05-07T06:43:09.714Z,24.54
2018-05-07T06:44:10.287Z,24.60
2018-05-07T06:45:10.850Z,24.42
2018-05-07T06:46:11.417Z,24.48
2018-05-07T06:47:11.989Z,24.20
2018-05-07T06:48:12.562Z,24.18
2018-05-07T06:49:13.139Z,24.42
2018-05-07T06:50:13.709Z,24.38
2018-05-07T06:51:14.281Z,24.21
2018-05-07T06:52:14.996Z,24.27
2018-05-07T06:53:15.416Z,24.45
2018-05-07T06:54:15.993Z,24.45
2018-05-07T06:55:16.565Z,24.35
2018-05-07T06:56:17.133Z,24.32
2018-05-07T06:57:17.707Z,24.33
2018-05-07T06:58:18.280Z,24.43
2018-05-07T06:59:18.850Z,24.21
2018-05-07T07:00:19.446Z,24.36
2018-05-07T07:01:19.993Z,24.18
2018-05-07T07:02:20.653Z,24.17
2018-05-07T07:03:21.131Z,23.98
2018-05-07T07:04:21.707Z,23.80
2018-05-07T07:05:22.278Z,23.61
2018-05-07T07:06:22.848Z,23.79
2018-05-07T07:07:23.471Z,23.53
2018-05-07T07:08:24.159Z,23.27
2018-05-07T07:09:24.552Z,23.41
2018-05-07T07:10:25.124Z,23.40
2018-05-07T07:11:25.697Z,23.39
2018-05-07T07:12:26.268Z,23.51
2018-05-07T07:13:26.836Z,23.81
2018-05-07T07:14:27.413Z,24.05
2018-05-07T07:15:27.986Z,24.38
2018-05-07T07:16:28.566Z,24.70
2018-05-07T07:17:29.127Z,24.79
2018-05-07T07:18:29.694Z,24.94
2018-05-07T07:19:30.268Z,24.77
2018-05-07T07:20:30.843Z,24.73
2018-05-07T07:21:31.415Z,24.95
2018-05-07T07:22:31.986Z,24.96
2018-05-07T07:23:32.553Z,25.01
2018-05-07T07:24:33.125Z,24.96
2018-05-07T07:25:33.698Z,24.43
2018-05-07T07:26:34.268Z,24.20
2018-05-07T07:27:34.845Z,24.14
2018-05-07T07:28:35.421Z,24.26
2018-05-07T07:29:35.987Z,24.57
2018-05-07T07:30:36.558Z,24.27
2018-05-07T07:31:37.123Z,24.53
2018-05-07T07:32:37.698Z,24.21
2018-05-07T07:33:38.348Z,24.05
2018-05-07T07:34:38.835Z,24.42
2018-05-07T07:35:39.405Z,24.69
2018-05-07T07:36:39.979Z,24.84
2018-05-07T07:37:40.553Z,25.14
2018-05-07T07:38:41.129Z,24.96
2018-05-07T07:39:41.696Z,25.25
2018-05-07T07:40:42.263Z,25.53
2018-05-07T07:41:42.832Z,25.50
2018-05-07T07:42:43.406Z,25.62
2018-05-07T07:43:43.976Z,25.68
2018-05-07T07:44:44.551Z,25.57
2018-05-07T07:45:45.130Z,24.96
2018-05-07T07:46:45.702Z,25.07
2018-05-07T07:47:46.277Z,25.04
2018-05-07T07:48:46.847Z,24.98
2018-05-07T07:49:47.420Z,25.33
2018-05-07T07:50:47.988Z,25.53
2018-05-07T07:51:48.561Z,25.75
2018-05-07T07:52:49.133Z,25.80
2018-05-07T07:53:49.713Z,26.02
2018-05-07T07:54:50.279Z,26.13
2018-05-07T07:55:50.859Z,26.10
2018-05-07T07:56:51.432Z,26.18
2018-05-07T07:57:52.012Z,26.13
2018-05-07T07:58:52.590Z,26.13
2018-05-07T07:59:53.164Z,26.22
2018-05-07T08:00:53.729Z,26.26
2018-05-07T08:01:54.301Z,26.21
2018-05-07T08:02:54.872Z,26.25
2018-05-07T08:03:55.496Z,26.06
2018-05-07T08:04:56.069Z,26.10
2018-05-07T08:05:56.641Z,25.99
2018-05-07T08:06:57.218Z,25.98
2018-05-07T08:07:57.789Z,26.10
2018-05-07T08:08:58.369Z,25.95
2018-05-07T08:09:58.945Z,26.22
2018-05-07T08:10:59.508Z,26.22
2018-05-07T08:12:00.143Z,26.69
2018-05-07T08:13:00.650Z,26.85
2018-05-07T08:14:01.221Z,26.95
2018-05-07T08:15:01.804Z,26.98
2018-05-07T08:16:02.383Z,26.88
2018-05-07T08:17:02.953Z,26.59
2018-05-07T08:18:03.526Z,26.71
2018-05-07T08:19:04.102Z,26.76
2018-05-07T08:20:04.882Z,26.58
2018-05-07T08:21:05.455Z,26.18
2018-05-07T08:22:06.026Z,26.19
2018-05-07T08:23:06.598Z,26.18
2018-05-07T08:24:07.177Z,26.13
2018-05-07T08:25:07.745Z,26.00
2018-05-07T08:26:08.327Z,26.28
2018-05-07T08:27:08.893Z,26.44
2018-05-07T08:28:09.466Z,26.62
2018-05-07T08:29:10.035Z,26.74
2018-05-07T08:30:10.601Z,26.63
2018-05-07T08:31:11.170Z,26.46
2018-05-07T08:32:11.747Z,26.50
2018-05-07T08:33:12.315Z,26.87
2018-05-07T08:34:12.885Z,26.93
2018-05-07T08:35:13.455Z,26.88
2018-05-07T08:36:14.028Z,26.95
2018-05-07T08:37:14.605Z,27.03
2018-05-07T08:38:15.179Z,26.99
2018-05-07T08:39:15.756Z,27.20
2018-05-07T08:40:16.535Z,26.77
2018-05-07T08:41:17.111Z,26.50
2018-05-07T08:42:17.694Z,26.78
2018-05-07T08:43:18.253Z,26.73
2018-05-07T08:44:18.824Z,27.02
2018-05-07T08:45:19.391Z,27.02
2018-05-07T08:46:19.985Z,27.05
2018-05-07T08:47:20.558Z,27.17
2018-05-07T08:48:21.143Z,27.06
2018-05-07T08:49:21.712Z,26.98
2018-05-07T08:50:22.343Z,26.98
2018-05-07T08:51:22.848Z,26.92
2018-05-07T08:52:23.418Z,27.18
2018-05-07T08:53:23.988Z,27.37
2018-05-07T08:54:24.561Z,26.95
2018-05-07T08:55:25.127Z,27.29
2018-05-07T08:56:25.692Z,27.51
2018-05-07T08:57:26.260Z,27.78
2018-05-07T08:58:26.824Z,27.80
2018-05-07T08:59:27.395Z,27.43
2018-05-07T09:00:28.171Z,27.30
2018-05-07T09:01:28.741Z,27.54
2018-05-07T09:02:29.322Z,27.47
2018-05-07T09:03:29.902Z,27.76
2018-05-07T09:04:30.470Z,27.83
2018-05-07T09:05:31.047Z,27.95
2018-05-07T09:06:31.623Z,27.85
2018-05-07T09:07:32.200Z,27.89
2018-05-07T09:08:32.766Z,27.71
2018-05-07T09:09:33.342Z,27.68
2018-05-07T09:10:33.919Z,27.74
2018-05-07T09:11:34.489Z,27.85
2018-05-07T09:12:35.065Z,28.13
2018-05-07T09:13:35.699Z,27.98
2018-05-07T09:14:36.206Z,28.22
2018-05-07T09:15:36.773Z,27.90
2018-05-07T09:16:37.345Z,27.68
2018-05-07T09:17:37.920Z,27.50
2018-05-07T09:18:38.506Z,27.61
2018-05-07T09:19:39.093Z,27.43
2018-05-07T09:20:39.684Z,27.54
2018-05-07T09:21:40.264Z,27.78
2018-05-07T09:22:40.844Z,27.88
2018-05-07T09:23:41.426Z,27.66
2018-05-07T09:24:42.036Z,27.45
2018-05-07T09:25:42.559Z,27.67
2018-05-07T09:26:43.131Z,27.77
2018-05-07T09:27:43.703Z,27.86
2018-05-07T09:28:44.271Z,28.08
2018-05-07T09:29:44.846Z,27.98
2018-05-07T09:30:45.417Z,27.86
2018-05-07T09:31:45.989Z,27.95
2018-05-07T09:32:46.560Z,28.15
2018-05-07T09:33:47.130Z,28.13
2018-05-07T09:34:47.695Z,28.08
2018-05-07T09:35:48.267Z,27.85
2018-05-07T09:36:48.836Z,27.71
2018-05-07T09:37:49.404Z,27.78
2018-05-07T09:38:49.976Z,27.80
2018-05-07T09:39:50.548Z,27.98
2018-05-07T09:40:51.125Z,28.00
2018-05-07T09:41:51.692Z,28.18
2018-05-07T09:42:52.263Z,27.93
2018-05-07T09:43:52.832Z,28.23
2018-05-07T09:44:53.396Z,28.22
2018-05-07T09:45:53.972Z,28.33
2018-05-07T09:46:54.541Z,28.40
2018-05-07T09:47:55.121Z,28.44
2018-05-07T09:48:55.688Z,28.32
2018-05-07T09:49:56.249Z,28.25
2018-05-07T09:50:56.823Z,27.81
2018-05-07T09:51:57.386Z,27.76
2018-05-07T09:52:57.969Z,28.07
2018-05-07T09:53:58.536Z,28.32
2018-05-07T09:54:59.117Z,28.07
2018-05-07T09:55:59.685Z,28.14
2018-05-07T09:57:00.297Z,27.95
2018-05-07T09:58:00.843Z,27.74
2018-05-07T09:59:01.415Z,27.73
2018-05-07T10:00:01.991Z,27.76
2018-05-07T10:01:02.558Z,27.78
2018-05-07T10:02:03.124Z,27.58
2018-05-07T10:03:03.693Z,27.61
2018-05-07T10:04:04.273Z,27.37
2018-05-07T10:05:04.861Z,27.25
2018-05-07T10:06:05.424Z,27.29
2018-05-07T10:07:06.004Z,27.51
2018-05-07T10:08:06.578Z,27.00
2018-05-07T10:09:07.148Z,26.83
2018-05-07T10:10:07.728Z,26.84
2018-05-07T10:11:08.317Z,26.96
2018-05-07T10:12:08.898Z,27.08
2018-05-07T10:13:09.490Z,27.30
2018-05-07T10:14:10.276Z,27.51
2018-05-07T10:15:10.865Z,27.63
2018-05-07T10:16:11.452Z,27.70
2018-05-07T10:17:12.046Z,27.73
2018-05-07T10:18:12.830Z,27.62
2018-05-07T10:19:13.533Z,27.89
2018-05-07T10:20:14.118Z,28.05
2018-05-07T10:21:14.692Z,27.98
2018-05-07T10:22:15.277Z,27.96
2018-05-07T10:23:15.865Z,28.08
2018-05-07T10:24:16.512Z,28.27
2018-05-07T10:25:17.012Z,28.26
2018-05-07T10:26:17.586Z,28.41
2018-05-07T10:27:18.165Z,28.50
2018-05-07T10:28:18.741Z,28.27
2018-05-07T10:29:19.324Z,28.44
2018-05-07T10:30:19.896Z,28.27
2018-05-07T10:31:20.473Z,28.00
2018-05-07T10:32:21.056Z,28.11
2018-05-07T10:33:21.644Z,27.89
2018-05-07T10:34:22.230Z,27.54
2018-05-07T10:35:22.832Z,27.63
2018-05-07T10:36:23.394Z,27.18
2018-05-07T10:37:23.975Z,27.48
2018-05-07T10:38:24.559Z,27.86
2018-05-07T10:39:25.192Z,27.62
2018-05-07T10:40:25.734Z,27.45
2018-05-07T10:41:26.323Z,27.48
2018-05-07T10:42:26.909Z,27.71
2018-05-07T10:43:27.491Z,28.03
2018-05-07T10:44:28.069Z,28.30
2018-05-07T10:45:28.643Z,28.29
2018-05-07T10:46:29.223Z,28.36
2018-05-07T10:47:29.811Z,28.54
2018-05-07T10:48:30.391Z,28.63
2018-05-07T10:49:30.975Z,28.27
2018-05-07T10:50:31.558Z,28.23
2018-05-07T10:51:32.137Z,28.29
2018-05-07T10:52:32.704Z,28.45
2018-05-07T10:53:33.291Z,28.84
2018-05-07T10:54:33.862Z,28.81
2018-05-07T10:55:34.446Z,28.85
2018-05-07T10:56:35.033Z,28.87
2018-05-07T10:57:35.622Z,28.82
2018-05-07T10:58:36.206Z,28.44
2018-05-07T11:00:52.257Z,28.66
2018-05-07T11:01:52.836Z,28.48
2018-05-07T11:02:53.417Z,28.67
2018-05-07T11:03:53.984Z,29.00
2018-05-07T11:04:54.559Z,29.27
2018-05-07T11:05:55.131Z,29.47
2018-05-07T11:06:55.714Z,29.23
2018-05-07T11:07:56.296Z,28.96
2018-05-07T11:08:56.858Z,29.13
2018-05-07T11:09:57.441Z,29.10
2018-05-07T11:10:58.014Z,28.73
2018-05-07T11:11:58.589Z,29.01
2018-05-07T11:12:59.163Z,29.20
2018-05-07T11:13:59.734Z,29.25
2018-05-07T11:15:00.366Z,29.50
2018-05-07T11:16:00.951Z,29.52
2018-05-07T11:17:01.525Z,29.60
2018-05-07T11:18:02.113Z,29.64
2018-05-07T11:19:02.678Z,29.44
2018-05-07T11:20:03.258Z,29.45
2018-05-07T11:21:03.827Z,29.53
2018-05-07T11:22:04.405Z,29.78
2018-05-07T11:23:04.974Z,30.21
2018-05-07T11:24:05.547Z,30.40
2018-05-07T11:25:06.118Z,30.26
2018-05-07T11:26:06.695Z,30.30
2018-05-07T11:27:07.262Z,30.13
2018-05-07T11:28:07.828Z,29.66
2018-05-07T11:29:08.401Z,29.37
2018-05-07T11:30:08.969Z,29.57
2018-05-07T11:31:09.605Z,29.72
2018-05-07T11:32:10.102Z,29.74
2018-05-07T11:33:10.672Z,29.91
2018-05-07T11:34:11.249Z,29.87
2018-05-07T11:35:11.825Z,29.69
2018-05-07T11:36:12.394Z,29.89
2018-05-07T11:37:12.968Z,30.11
2018-05-07T11:38:13.543Z,30.38
2018-05-07T11:39:14.109Z,30.57
2018-05-07T11:40:14.684Z,30.72
2018-05-07T11:41:34.459Z,30.60
2018-05-07T11:42:35.032Z,30.38
2018-05-07T11:43:35.607Z,30.50
2018-05-07T11:44:36.179Z,30.65
2018-05-07T11:45:36.757Z,30.44
2018-05-07T11:46:37.339Z,30.03
2018-05-07T11:47:38.012Z,30.19
2018-05-07T11:48:38.474Z,30.51
2018-05-07T11:49:39.053Z,30.68
2018-05-07T11:50:39.636Z,31.06
2018-05-07T11:51:40.219Z,31.17
2018-05-07T11:52:40.793Z,31.13
2018-05-07T11:53:41.369Z,31.31
2018-05-07T11:54:41.947Z,31.54
2018-05-07T11:55:42.520Z,31.57
2018-05-07T11:56:43.093Z,31.37
2018-05-07T11:57:43.672Z,31.57
2018-05-07T11:58:44.245Z,31.20
2018-05-07T11:59:44.820Z,31.08
2018-05-07T12:00:45.421Z,31.34
2018-05-07T12:01:45.970Z,31.61
2018-05-07T12:02:46.634Z,31.84
2018-05-07T12:03:47.107Z,31.87
2018-05-07T12:04:47.688Z,31.79
2018-05-07T12:05:48.262Z,31.71
2018-05-07T12:06:48.848Z,31.55
2018-05-07T12:07:49.419Z,31.64
2018-05-07T12:08:49.992Z,31.79
2018-05-07T12:09:50.571Z,31.47
2018-05-07T12:10:51.141Z,31.27
2018-05-07T12:11:51.720Z,31.65
2018-05-07T12:12:52.303Z,31.99
2018-05-07T12:13:53.087Z,32.03
2018-05-07T12:14:53.667Z,31.88
2018-05-07T12:15:54.260Z,31.49
2018-05-07T12:16:54.808Z,31.32
2018-05-07T12:17:55.391Z,31.52
2018-05-07T12:18:55.963Z,32.02
2018-05-07T12:19:56.546Z,31.97
2018-05-07T12:20:57.131Z,32.12
2018-05-07T12:21:57.730Z,31.84
2018-05-07T12:22:58.412Z,31.31
2018-05-07T12:23:58.905Z,31.40
2018-05-07T12:24:59.486Z,31.69
2018-05-07T12:26:00.086Z,31.74
2018-05-07T12:27:00.661Z,31.47
2018-05-07T12:28:01.248Z,31.55
2018-05-07T12:29:01.822Z,31.62
2018-05-07T12:30:02.391Z,31.69
2018-05-07T12:31:02.969Z,31.93
2018-05-07T12:32:03.548Z,31.99
2018-05-07T12:33:04.127Z,31.96
2018-05-07T12:34:04.703Z,31.13
2018-05-07T12:35:05.280Z,31.01
2018-05-07T12:36:05.850Z,31.67
2018-05-07T12:37:06.431Z,31.90
2018-05-07T12:38:07.000Z,31.31
2018-05-07T12:39:07.572Z,31.54
2018-05-07T12:40:08.160Z,31.37
2018-05-07T12:41:08.781Z,31.39
2018-05-07T12:42:09.347Z,31.62
2018-05-07T12:43:09.927Z,31.84
2018-05-07T12:44:10.500Z,31.58
2018-05-07T12:45:11.089Z,31.55
2018-05-07T12:46:11.658Z,31.73
2018-05-07T12:47:12.234Z,31.76
2018-05-07T12:48:12.904Z,31.82
2018-05-07T12:49:13.399Z,32.07
2018-05-07T12:50:14.179Z,32.40
2018-05-07T12:51:14.843Z,32.73
2018-05-07T12:52:15.538Z,32.77
2018-05-07T12:53:16.117Z,32.66
2018-05-07T12:54:16.688Z,32.66
2018-05-07T12:55:17.278Z,32.54
2018-05-07T12:56:17.849Z,32.34
2018-05-07T12:57:18.495Z,31.96
2018-05-07T12:58:19.116Z,31.82
2018-05-07T12:59:19.723Z,31.49
2018-05-07T13:00:20.295Z,31.47
2018-05-07T13:01:20.877Z,31.50
2018-05-07T13:02:21.470Z,31.50